createdAt,value
2019-03-21T00:00:49.813Z,10.59
2019-03-21T00:01:49.808Z,10.51
2019-03-21T00:02:49.824Z,10.57
2019-03-21T00:03:49.843Z,10.55
2019-03-21T00:04:49.861Z,10.55
2019-03-21T00:05:49.879Z,10.48
2019-03-21T00:06:49.896Z,10.51
2019-03-21T00:07:49.933Z,10.49
2019-03-21T00:08:50.015Z,10.49
2019-03-21T00:09:49.992Z,10.53
2019-03-21T00:10:49.992Z,10.48
2019-03-21T00:11:50.061Z,10.59
2019-03-21T00:12:50.064Z,10.53
2019-03-21T00:13:50.090Z,10.58
2019-03-21T00:14:50.085Z,10.57
2019-03-21T00:15:50.060Z,10.51
2019-03-21T00:16:50.074Z,10.45
2019-03-21T00:17:50.091Z,10.49
2019-03-21T00:18:50.112Z,10.55
2019-03-21T00:19:50.124Z,10.53
2019-03-21T00:20:50.143Z,10.49
2019-03-21T00:21:50.160Z,10.48
2019-03-21T00:22:50.177Z,10.49
2019-03-21T00:23:50.194Z,10.45
2019-03-21T00:24:50.214Z,10.53
2019-03-21T00:25:50.240Z,10.49
2019-03-21T00:26:50.249Z,10.51
2019-03-21T00:27:50.266Z,10.49
2019-03-21T00:28:50.283Z,10.53
2019-03-21T00:29:50.302Z,10.57
2019-03-21T00:30:50.319Z,10.53
2019-03-21T00:31:50.336Z,10.45
2019-03-21T00:32:50.353Z,10.41
2019-03-21T00:33:50.373Z,10.43
2019-03-21T00:34:50.391Z,10.43
2019-03-21T00:35:50.409Z,10.41
2019-03-21T00:36:50.429Z,10.53
2019-03-21T00:37:50.440Z,10.42
2019-03-21T00:38:50.460Z,10.45
2019-03-21T00:39:50.480Z,10.49
2019-03-21T00:40:50.498Z,10.43
2019-03-21T00:41:50.513Z,10.49
2019-03-21T00:42:50.529Z,10.45
2019-03-21T00:43:50.548Z,10.36
2019-03-21T00:44:50.568Z,10.42
2019-03-21T00:45:50.585Z,10.43
2019-03-21T00:46:50.600Z,10.43
2019-03-21T00:47:50.619Z,10.43
2019-03-21T00:48:50.637Z,10.46
2019-03-21T00:49:50.655Z,10.39
2019-03-21T00:50:50.672Z,10.49
2019-03-21T00:51:50.691Z,10.57
2019-03-21T00:52:50.707Z,10.55
2019-03-21T00:53:50.724Z,10.42
2019-03-21T00:54:50.742Z,10.45
2019-03-21T00:55:50.761Z,10.45
2019-03-21T00:56:50.778Z,10.48
2019-03-21T00:57:50.800Z,10.42
2019-03-21T00:58:50.810Z,10.43
2019-03-21T00:59:50.831Z,10.48
2019-03-21T01:00:50.848Z,10.41
2019-03-21T01:01:50.866Z,10.45
2019-03-21T01:02:50.882Z,10.48
2019-03-21T01:03:50.905Z,10.45
2019-03-21T01:04:50.920Z,10.46
2019-03-21T01:05:50.940Z,10.48
2019-03-21T01:06:50.954Z,10.45
2019-03-21T01:07:50.972Z,10.33
2019-03-21T01:08:50.990Z,10.39
2019-03-21T01:09:51.009Z,10.33
2019-03-21T01:10:51.024Z,10.33
2019-03-21T01:11:51.042Z,10.30
2019-03-21T01:12:51.062Z,10.39
2019-03-21T01:13:51.079Z,10.33
2019-03-21T01:14:51.102Z,10.42
2019-03-21T01:15:51.112Z,10.42
2019-03-21T01:16:51.130Z,10.34
2019-03-21T01:17:51.148Z,10.38
2019-03-21T01:18:51.165Z,10.33
2019-03-21T01:19:51.184Z,10.33
2019-03-21T01:20:51.202Z,10.34
2019-03-21T01:21:51.219Z,10.30
2019-03-21T01:22:51.235Z,10.24
2019-03-21T01:23:51.256Z,10.38
2019-03-21T01:24:51.272Z,10.38
2019-03-21T01:25:51.289Z,10.38
2019-03-21T01:26:51.306Z,10.34
2019-03-21T01:27:51.324Z,10.36
2019-03-21T01:28:51.344Z,10.33
2019-03-21T01:29:51.359Z,10.36
2019-03-21T01:30:51.376Z,10.33
2019-03-21T01:31:51.393Z,10.38
2019-03-21T01:32:51.411Z,10.36
2019-03-21T01:33:51.428Z,10.38
2019-03-21T01:34:51.447Z,10.39
2019-03-21T01:35:51.464Z,10.31
2019-03-21T01:36:51.481Z,10.31
2019-03-21T01:37:51.497Z,10.38
2019-03-21T01:38:51.570Z,10.30
2019-03-21T01:39:51.534Z,10.31
2019-03-21T01:40:51.557Z,10.41
2019-03-21T01:41:51.570Z,10.31
2019-03-21T01:42:51.587Z,10.31
2019-03-21T01:43:51.605Z,10.36
2019-03-21T01:44:51.625Z,10.31
2019-03-21T01:45:51.638Z,10.36
2019-03-21T01:46:51.655Z,10.34
2019-03-21T01:47:51.674Z,10.34
2019-03-21T01:48:51.690Z,10.31
2019-03-21T01:49:51.710Z,10.34
2019-03-21T01:50:51.729Z,10.33
2019-03-21T01:51:51.748Z,10.31
2019-03-21T01:52:51.762Z,10.31
2019-03-21T01:53:51.799Z,10.31
2019-03-21T01:54:51.871Z,10.28
2019-03-21T01:55:51.856Z,10.36
2019-03-21T01:56:51.873Z,10.30
2019-03-21T01:57:51.932Z,10.31
2019-03-21T01:58:51.929Z,10.24
2019-03-21T01:59:51.920Z,10.33
2019-03-21T02:00:51.925Z,10.30
2019-03-21T02:01:51.934Z,10.23
2019-03-21T02:02:51.936Z,10.27
2019-03-21T02:03:51.952Z,10.30
2019-03-21T02:04:51.972Z,10.31
2019-03-21T02:05:51.990Z,10.30
2019-03-21T02:06:52.007Z,10.33
2019-03-21T02:07:52.023Z,10.27
2019-03-21T02:08:52.041Z,10.28
2019-03-21T02:09:52.060Z,10.25
2019-03-21T02:10:52.074Z,10.27
2019-03-21T02:11:52.095Z,10.30
2019-03-21T02:12:52.110Z,10.24
2019-03-21T02:13:52.130Z,10.25
2019-03-21T02:14:52.568Z,10.24
2019-03-21T02:15:52.166Z,10.31
2019-03-21T02:16:52.179Z,10.27
2019-03-21T02:17:52.200Z,10.30
2019-03-21T02:18:52.216Z,10.28
2019-03-21T02:19:52.233Z,10.25
2019-03-21T02:20:52.252Z,10.23
2019-03-21T02:21:52.266Z,10.21
2019-03-21T02:22:52.285Z,10.23
2019-03-21T02:23:52.303Z,10.21
2019-03-21T02:24:52.320Z,10.30
2019-03-21T02:25:52.338Z,10.30
2019-03-21T02:26:52.357Z,10.23
2019-03-21T02:27:52.373Z,10.28
2019-03-21T02:28:52.391Z,10.23
2019-03-21T02:29:52.413Z,10.31
2019-03-21T02:30:52.430Z,10.23
2019-03-21T02:31:52.445Z,10.27
2019-03-21T02:32:52.462Z,10.25
2019-03-21T02:33:52.486Z,10.25
2019-03-21T02:34:52.494Z,10.27
2019-03-21T02:35:52.514Z,10.24
2019-03-21T02:36:52.533Z,10.18
2019-03-21T02:37:52.548Z,10.30
2019-03-21T02:38:52.565Z,10.24
2019-03-21T02:39:59.449Z,10.23
2019-03-21T02:40:52.603Z,10.17
2019-03-21T02:41:52.624Z,10.24
2019-03-21T02:42:52.635Z,10.27
2019-03-21T02:43:52.651Z,10.25
2019-03-21T02:45:07.306Z,10.23
2019-03-21T02:45:52.693Z,10.24
2019-03-21T02:46:52.710Z,10.25
2019-03-21T02:47:52.725Z,10.25
2019-03-21T02:48:52.743Z,10.21
2019-03-21T02:49:52.758Z,10.28
2019-03-21T02:50:52.776Z,10.27
2019-03-21T02:51:52.791Z,10.28
2019-03-21T02:52:52.809Z,10.30
2019-03-21T02:53:52.828Z,10.28
2019-03-21T02:54:52.846Z,10.24
2019-03-21T02:55:52.865Z,10.25
2019-03-21T02:56:52.879Z,10.24
2019-03-21T02:57:52.900Z,10.27
2019-03-21T02:58:52.915Z,10.28
2019-03-21T02:59:52.933Z,10.28
2019-03-21T03:00:52.950Z,10.23
2019-03-21T03:01:52.971Z,10.24
2019-03-21T03:02:52.987Z,10.25
2019-03-21T03:03:53.004Z,10.28
2019-03-21T03:04:53.020Z,10.28
2019-03-21T03:05:53.039Z,10.30
2019-03-21T03:06:53.056Z,10.25
2019-03-21T03:07:53.073Z,10.28
2019-03-21T03:08:53.094Z,10.24
2019-03-21T03:09:53.110Z,10.27
2019-03-21T03:10:53.124Z,10.27
2019-03-21T03:11:53.145Z,10.23
2019-03-21T03:12:53.163Z,10.17
2019-03-21T03:13:53.179Z,10.24
2019-03-21T03:14:53.196Z,10.24
2019-03-21T03:15:53.218Z,10.27
2019-03-21T03:16:53.230Z,10.25
2019-03-21T03:17:53.248Z,10.23
2019-03-21T03:18:53.265Z,10.17
2019-03-21T03:19:53.287Z,10.27
2019-03-21T03:20:53.306Z,10.17
2019-03-21T03:21:53.319Z,10.28
2019-03-21T03:22:53.339Z,10.27
2019-03-21T03:23:53.365Z,10.23
2019-03-21T03:24:53.371Z,10.27
2019-03-21T03:25:53.395Z,10.24
2019-03-21T03:26:53.406Z,10.20
2019-03-21T03:27:53.428Z,10.27
2019-03-21T03:28:53.442Z,10.23
2019-03-21T03:29:53.460Z,10.21
2019-03-21T03:30:53.498Z,10.27
2019-03-21T03:31:53.689Z,10.27
2019-03-21T03:32:53.516Z,10.18
2019-03-21T03:33:53.530Z,10.27
2019-03-21T03:34:53.547Z,10.21
2019-03-21T03:35:53.566Z,10.24
2019-03-21T03:36:53.580Z,10.27
2019-03-21T03:37:53.604Z,10.21
2019-03-21T03:38:53.619Z,10.21
2019-03-21T03:39:53.633Z,10.18
2019-03-21T03:40:53.685Z,10.21
2019-03-21T03:41:53.735Z,10.25
2019-03-21T03:42:53.772Z,10.27
2019-03-21T03:43:53.729Z,10.23
2019-03-21T03:44:53.790Z,10.24
2019-03-21T03:45:53.790Z,10.25
2019-03-21T03:46:53.794Z,10.15
2019-03-21T03:47:53.802Z,10.25
2019-03-21T03:48:53.803Z,10.27
2019-03-21T03:49:53.815Z,10.24
2019-03-21T03:50:53.916Z,10.24
2019-03-21T03:51:53.844Z,10.21
2019-03-21T03:52:53.862Z,10.18
2019-03-21T03:53:53.881Z,10.15
2019-03-21T03:54:53.896Z,10.27
2019-03-21T03:55:53.927Z,10.24
2019-03-21T03:56:53.931Z,10.23
2019-03-21T03:57:53.955Z,10.21
2019-03-21T03:58:53.972Z,10.20
2019-03-21T03:59:53.989Z,10.13
2019-03-21T04:00:54.002Z,10.07
2019-03-21T04:01:54.022Z,10.13
2019-03-21T04:02:54.037Z,10.23
2019-03-21T04:03:54.058Z,10.20
2019-03-21T04:04:54.074Z,10.07
2019-03-21T04:05:54.402Z,10.10
2019-03-21T04:06:54.106Z,10.15
2019-03-21T04:07:54.126Z,10.20
2019-03-21T04:08:54.145Z,10.20
2019-03-21T04:09:54.161Z,10.21
2019-03-21T04:10:54.182Z,10.10
2019-03-21T04:11:54.196Z,10.17
2019-03-21T04:12:54.219Z,10.15
2019-03-21T04:13:54.232Z,10.20
2019-03-21T04:14:54.248Z,10.17
2019-03-21T04:15:54.384Z,10.13
2019-03-21T04:16:54.284Z,10.10
2019-03-21T04:17:54.303Z,10.10
2019-03-21T04:18:54.322Z,10.12
2019-03-21T04:19:54.334Z,10.21
2019-03-21T04:20:54.387Z,10.06
2019-03-21T04:21:54.376Z,10.07
2019-03-21T04:22:54.390Z,10.10
2019-03-21T04:23:54.410Z,10.17
2019-03-21T04:24:54.428Z,10.13
2019-03-21T04:25:54.452Z,10.17
2019-03-21T04:26:54.469Z,10.18
2019-03-21T04:27:54.478Z,10.07
2019-03-21T04:28:54.506Z,10.12
2019-03-21T04:29:54.512Z,10.18
2019-03-21T04:30:54.536Z,10.06
2019-03-21T04:31:54.547Z,10.12
2019-03-21T04:32:54.565Z,10.18
2019-03-21T04:33:54.588Z,10.15
2019-03-21T04:34:54.599Z,10.18
2019-03-21T04:35:54.620Z,10.21
2019-03-21T04:36:54.634Z,10.06
2019-03-21T04:37:54.654Z,10.13
2019-03-21T04:38:54.670Z,10.12
2019-03-21T04:39:54.692Z,10.13
2019-03-21T04:40:54.705Z,10.28
2019-03-21T04:41:54.724Z,10.15
2019-03-21T04:42:54.740Z,10.07
2019-03-21T04:43:54.759Z,10.10
2019-03-21T04:44:54.775Z,10.17
2019-03-21T04:46:02.903Z,10.24
2019-03-21T04:46:54.811Z,10.13
2019-03-21T04:47:54.828Z,10.15
2019-03-21T04:48:54.846Z,10.17
2019-03-21T04:49:54.865Z,10.20
2019-03-21T04:50:54.881Z,10.18
2019-03-21T04:51:54.898Z,10.09
2019-03-21T04:52:54.916Z,10.12
2019-03-21T04:53:54.934Z,10.24
2019-03-21T04:54:54.952Z,10.10
2019-03-21T04:55:54.970Z,10.18
2019-03-21T04:56:54.986Z,10.15
2019-03-21T04:57:55.007Z,10.13
2019-03-21T04:58:55.019Z,10.18
2019-03-21T04:59:55.051Z,10.17
2019-03-21T05:00:55.055Z,10.17
2019-03-21T05:01:55.073Z,10.18
2019-03-21T05:02:55.091Z,10.17
2019-03-21T05:03:55.109Z,10.24
2019-03-21T05:04:55.127Z,10.18
2019-03-21T05:05:55.143Z,10.18
2019-03-21T05:06:55.160Z,10.24
2019-03-21T05:07:55.180Z,10.21
2019-03-21T05:08:55.196Z,10.23
2019-03-21T05:09:55.214Z,10.27
2019-03-21T05:10:55.231Z,10.23
2019-03-21T05:11:55.248Z,10.28
2019-03-21T05:12:55.263Z,10.25
2019-03-21T05:13:55.285Z,10.21
2019-03-21T05:14:55.301Z,10.24
2019-03-21T05:15:55.318Z,10.28
2019-03-21T05:16:55.340Z,10.25
2019-03-21T05:17:55.355Z,10.21
2019-03-21T05:18:55.371Z,10.24
2019-03-21T05:19:55.391Z,10.24
2019-03-21T05:20:55.406Z,10.23
2019-03-21T05:21:55.424Z,10.25
2019-03-21T05:22:55.440Z,10.24
2019-03-21T05:23:55.458Z,10.25
2019-03-21T05:24:55.476Z,10.25
2019-03-21T05:25:55.493Z,10.27
2019-03-21T05:26:55.520Z,10.23
2019-03-21T05:27:55.596Z,10.27
2019-03-21T05:28:55.604Z,10.25
2019-03-21T05:29:55.596Z,10.27
2019-03-21T05:30:55.613Z,10.28
2019-03-21T05:31:55.661Z,10.28
2019-03-21T05:32:55.704Z,10.25
2019-03-21T05:33:55.685Z,10.27
2019-03-21T05:34:55.666Z,10.24
2019-03-21T05:35:55.669Z,10.27
2019-03-21T05:36:55.687Z,10.33
2019-03-21T05:37:55.705Z,10.33
2019-03-21T05:38:55.723Z,10.34
2019-03-21T05:39:55.741Z,10.34
2019-03-21T05:40:55.760Z,10.27
2019-03-21T05:41:55.779Z,10.33
2019-03-21T05:42:55.794Z,10.28
2019-03-21T05:43:55.811Z,10.24
2019-03-21T05:44:55.829Z,10.33
2019-03-21T05:45:55.845Z,10.38
2019-03-21T05:46:55.865Z,10.34
2019-03-21T05:47:55.887Z,10.38
2019-03-21T05:48:55.899Z,10.36
2019-03-21T05:49:55.917Z,10.31
2019-03-21T05:50:55.934Z,10.34
2019-03-21T05:51:55.952Z,10.38
2019-03-21T05:52:55.970Z,10.38
2019-03-21T05:53:55.988Z,10.39
2019-03-21T05:54:56.005Z,10.30
2019-03-21T05:55:56.023Z,10.43
2019-03-21T05:56:56.041Z,10.42
2019-03-21T05:57:56.060Z,10.30
2019-03-21T05:58:56.074Z,10.41
2019-03-21T05:59:56.094Z,10.41
2019-03-21T06:00:56.115Z,10.39
2019-03-21T06:01:56.129Z,10.42
2019-03-21T06:02:56.153Z,10.43
2019-03-21T06:03:56.165Z,10.43
2019-03-21T06:04:56.183Z,10.45
2019-03-21T06:05:56.206Z,10.42
2019-03-21T06:06:56.217Z,10.42
2019-03-21T06:07:56.238Z,10.53
2019-03-21T06:08:56.256Z,10.51
2019-03-21T06:09:56.271Z,10.53
2019-03-21T06:10:56.290Z,10.48
2019-03-21T06:11:56.306Z,10.55
2019-03-21T06:12:56.324Z,10.48
2019-03-21T06:13:56.342Z,10.62
2019-03-21T06:14:56.361Z,10.57
2019-03-21T06:15:56.381Z,10.58
2019-03-21T06:16:56.396Z,10.59
2019-03-21T06:17:56.416Z,10.57
2019-03-21T06:18:56.430Z,10.62
2019-03-21T06:19:56.450Z,10.61
2019-03-21T06:20:56.467Z,10.64
2019-03-21T06:21:56.493Z,10.71
2019-03-21T06:22:56.502Z,10.61
2019-03-21T06:23:56.522Z,10.64
2019-03-21T06:24:56.538Z,10.65
2019-03-21T06:25:56.556Z,10.69
2019-03-21T06:26:56.574Z,10.67
2019-03-21T06:27:56.593Z,10.72
2019-03-21T06:28:56.609Z,10.75
2019-03-21T06:29:56.632Z,10.69
2019-03-21T06:30:56.645Z,10.77
2019-03-21T06:31:56.665Z,10.72
2019-03-21T06:32:56.684Z,10.77
2019-03-21T06:33:56.707Z,10.75
2019-03-21T06:34:56.717Z,10.72
2019-03-21T06:35:56.735Z,10.72
2019-03-21T06:36:56.753Z,10.84
2019-03-21T06:37:56.771Z,10.79
2019-03-21T06:38:56.790Z,10.72
2019-03-21T06:39:56.814Z,10.84
2019-03-21T06:40:56.825Z,10.83
2019-03-21T06:41:56.846Z,10.89
2019-03-21T06:42:56.861Z,10.77
2019-03-21T06:43:56.881Z,10.79
2019-03-21T06:44:56.902Z,10.83
2019-03-21T06:45:56.915Z,10.79
2019-03-21T06:46:56.934Z,11.04
2019-03-21T06:47:56.954Z,10.89
2019-03-21T06:48:56.971Z,10.94
2019-03-21T06:49:56.990Z,10.92
2019-03-21T06:50:57.006Z,11.04
2019-03-21T06:51:57.025Z,10.92
2019-03-21T06:52:57.043Z,10.98
2019-03-21T06:53:57.065Z,10.94
2019-03-21T06:54:59.567Z,11.07
2019-03-21T06:55:57.097Z,10.98
2019-03-21T06:56:57.115Z,10.98
2019-03-21T06:57:57.135Z,11.00
2019-03-21T06:58:57.153Z,11.08
2019-03-21T06:59:57.172Z,11.08
2019-03-21T07:00:57.192Z,11.04
2019-03-21T07:01:57.206Z,11.08
2019-03-21T07:02:57.225Z,11.01
2019-03-21T07:04:06.591Z,11.13
2019-03-21T07:04:57.261Z,11.08
2019-03-21T07:05:57.280Z,11.10
2019-03-21T07:07:07.541Z,11.15
2019-03-21T07:07:57.316Z,11.18
2019-03-21T07:08:57.340Z,11.15
2019-03-21T07:09:57.353Z,11.12
2019-03-21T07:10:58.350Z,11.16
2019-03-21T07:11:57.413Z,11.20
2019-03-21T07:12:57.468Z,11.23
2019-03-21T07:13:57.474Z,11.25
2019-03-21T07:14:57.469Z,11.26
2019-03-21T07:15:57.535Z,11.31
2019-03-21T07:17:00.690Z,11.25
2019-03-21T07:17:57.535Z,11.23
2019-03-21T07:18:57.547Z,11.25
2019-03-21T07:19:57.540Z,11.27
2019-03-21T07:20:57.556Z,11.38
2019-03-21T07:21:57.576Z,11.30
2019-03-21T07:22:57.592Z,11.35
2019-03-21T07:23:57.613Z,11.35
2019-03-21T07:24:57.629Z,11.34
2019-03-21T07:25:57.650Z,11.38
2019-03-21T07:26:57.665Z,11.37
2019-03-21T07:27:57.684Z,11.40
2019-03-21T07:28:57.703Z,11.43
2019-03-21T07:29:57.721Z,11.49
2019-03-21T07:30:57.740Z,11.52
2019-03-21T07:31:57.761Z,11.48
2019-03-21T07:32:57.776Z,11.45
2019-03-21T07:33:57.798Z,11.51
2019-03-21T07:34:57.815Z,11.43
2019-03-21T07:35:57.835Z,11.52
2019-03-21T07:36:57.853Z,11.45
2019-03-21T07:37:57.874Z,11.55
2019-03-21T07:38:57.886Z,11.52
2019-03-21T07:39:57.906Z,11.53
2019-03-21T07:40:57.929Z,11.55
2019-03-21T07:41:57.951Z,11.58
2019-03-21T07:42:57.960Z,11.62
2019-03-21T07:43:57.985Z,11.56
2019-03-21T07:44:58.001Z,11.59
2019-03-21T07:45:58.020Z,11.59
2019-03-21T07:46:58.035Z,11.56
2019-03-21T07:47:58.056Z,11.58
2019-03-21T07:48:58.076Z,11.59
2019-03-21T07:49:58.105Z,11.70
2019-03-21T07:50:58.115Z,11.67
2019-03-21T07:51:58.129Z,11.63
2019-03-21T07:52:58.151Z,11.67
2019-03-21T07:53:58.169Z,11.74
2019-03-21T07:54:58.186Z,11.73
2019-03-21T07:55:58.204Z,11.73
2019-03-21T07:56:58.224Z,11.70
2019-03-21T07:57:59.449Z,11.77
2019-03-21T07:58:58.261Z,11.74
2019-03-21T07:59:58.278Z,11.70
2019-03-21T08:00:58.298Z,11.71
2019-03-21T08:01:58.316Z,11.85
2019-03-21T08:02:58.337Z,11.71
2019-03-21T08:03:58.354Z,11.74
2019-03-21T08:04:58.370Z,11.73
2019-03-21T08:05:58.391Z,11.68
2019-03-21T08:06:58.409Z,11.65
2019-03-21T08:07:58.429Z,11.71
2019-03-21T08:08:58.449Z,11.67
2019-03-21T08:09:58.466Z,11.73
2019-03-21T08:10:58.484Z,11.73
2019-03-21T08:11:58.503Z,11.80
2019-03-21T08:12:58.525Z,11.73
2019-03-21T08:13:58.543Z,11.85
2019-03-21T08:14:58.558Z,11.83
2019-03-21T08:15:58.577Z,11.80
2019-03-21T08:16:58.599Z,11.86
2019-03-21T08:17:58.620Z,11.91
2019-03-21T08:18:58.639Z,11.85
2019-03-21T08:19:58.654Z,11.91
2019-03-21T08:20:59.995Z,11.91
2019-03-21T08:21:58.691Z,11.85
2019-03-21T08:22:58.708Z,11.96
2019-03-21T08:23:58.730Z,11.97
2019-03-21T08:24:58.750Z,12.00
2019-03-21T08:25:58.767Z,12.02
2019-03-21T08:26:58.784Z,11.99
2019-03-21T08:27:58.806Z,12.02
2019-03-21T08:28:58.823Z,12.02
2019-03-21T08:29:58.840Z,12.07
2019-03-21T08:30:58.859Z,11.97
2019-03-21T08:31:58.882Z,12.07
2019-03-21T08:32:58.898Z,12.10
2019-03-21T08:33:58.917Z,12.10
2019-03-21T08:34:58.936Z,12.14
2019-03-21T08:35:58.955Z,12.02
2019-03-21T08:36:58.975Z,12.03
2019-03-21T08:37:58.995Z,12.08
2019-03-21T08:38:59.014Z,12.08
2019-03-21T08:39:59.030Z,12.20
2019-03-21T08:40:59.053Z,12.12
2019-03-21T08:41:59.071Z,12.25
2019-03-21T08:42:59.088Z,12.18
2019-03-21T08:43:59.109Z,12.17
2019-03-21T08:44:59.127Z,12.17
2019-03-21T08:45:59.144Z,12.20
2019-03-21T08:46:59.165Z,12.26
2019-03-21T08:47:59.192Z,12.21
2019-03-21T08:48:59.205Z,12.26
2019-03-21T08:49:59.224Z,12.26
2019-03-21T08:51:07.783Z,12.35
2019-03-21T08:51:59.271Z,12.35
2019-03-21T08:52:59.348Z,12.35
2019-03-21T08:53:59.339Z,12.28
2019-03-21T08:54:59.351Z,12.35
2019-03-21T08:55:59.411Z,12.29
2019-03-21T08:56:59.410Z,12.43
2019-03-21T08:57:59.412Z,12.44
2019-03-21T08:58:59.403Z,12.43
2019-03-21T08:59:59.432Z,12.45
2019-03-21T09:00:59.435Z,12.43
2019-03-21T09:01:59.455Z,12.35
2019-03-21T09:02:59.475Z,12.55
2019-03-21T09:03:59.490Z,12.53
2019-03-21T09:04:59.907Z,12.53
2019-03-21T09:05:59.530Z,12.54
2019-03-21T09:06:59.550Z,12.69
2019-03-21T09:07:59.573Z,12.66
2019-03-21T09:08:59.590Z,12.62
2019-03-21T09:09:59.608Z,12.66
2019-03-21T09:10:59.628Z,12.75
2019-03-21T09:11:59.648Z,12.72
2019-03-21T09:12:59.666Z,12.69
2019-03-21T09:13:59.686Z,12.84
2019-03-21T09:14:59.706Z,12.73
2019-03-21T09:15:59.724Z,12.75
2019-03-21T09:16:59.749Z,12.75
2019-03-21T09:17:59.766Z,12.80
2019-03-21T09:18:59.783Z,12.83
2019-03-21T09:19:59.805Z,12.80
2019-03-21T09:20:59.823Z,12.88
2019-03-21T09:21:59.843Z,12.84
2019-03-21T09:22:59.861Z,12.93
2019-03-21T09:23:59.885Z,12.98
2019-03-21T09:24:59.904Z,13.03
2019-03-21T09:25:59.923Z,13.03
2019-03-21T09:26:59.943Z,13.02
2019-03-21T09:28:02.865Z,13.02
2019-03-21T09:28:59.981Z,13.02
2019-03-21T09:30:00.004Z,13.08
2019-03-21T09:31:00.021Z,13.06
2019-03-21T09:32:00.042Z,13.19
2019-03-21T09:33:00.061Z,13.12
2019-03-21T09:34:00.083Z,13.20
2019-03-21T09:35:00.170Z,13.19
2019-03-21T09:36:00.122Z,13.19
2019-03-21T09:37:00.142Z,13.19
2019-03-21T09:38:00.160Z,13.17
2019-03-21T09:39:00.180Z,13.19
2019-03-21T09:40:00.334Z,13.16
2019-03-21T09:41:00.219Z,13.28
2019-03-21T09:42:00.240Z,13.30
2019-03-21T09:43:02.854Z,13.27
2019-03-21T09:44:00.334Z,13.13
2019-03-21T09:45:00.449Z,13.13
2019-03-21T09:46:00.322Z,13.23
2019-03-21T09:47:00.340Z,13.16
2019-03-21T09:48:00.360Z,13.26
2019-03-21T09:49:00.380Z,13.12
2019-03-21T09:50:00.436Z,13.21
2019-03-21T09:51:00.418Z,13.13
2019-03-21T09:52:00.491Z,13.24
2019-03-21T09:53:00.459Z,13.12
2019-03-21T09:54:09.335Z,13.12
2019-03-21T09:55:00.499Z,13.13
2019-03-21T09:56:01.226Z,13.09
2019-03-21T09:57:00.556Z,13.21
2019-03-21T09:58:00.560Z,13.13
2019-03-21T09:59:00.578Z,13.13
2019-03-21T10:00:00.603Z,13.13
2019-03-21T10:01:00.621Z,13.17
2019-03-21T10:02:00.639Z,13.13
2019-03-21T10:03:00.659Z,13.23
2019-03-21T10:04:00.680Z,13.23
2019-03-21T10:05:00.700Z,13.24
2019-03-21T10:06:00.770Z,13.23
2019-03-21T10:07:00.738Z,13.24
2019-03-21T10:08:00.759Z,13.21
2019-03-21T10:09:00.778Z,13.13
2019-03-21T10:10:00.799Z,13.17
2019-03-21T10:11:00.817Z,13.21
2019-03-21T10:12:00.837Z,13.21
2019-03-21T10:13:00.858Z,13.16
2019-03-21T10:14:00.880Z,13.31
2019-03-21T10:15:00.898Z,13.20
2019-03-21T10:16:00.916Z,13.28
2019-03-21T10:17:00.939Z,13.26
2019-03-21T10:18:00.961Z,13.21
2019-03-21T10:19:00.979Z,13.21
2019-03-21T10:20:01.004Z,13.37
2019-03-21T10:21:01.019Z,13.27
2019-03-21T10:22:01.039Z,13.31
2019-03-21T10:23:01.055Z,13.36
2019-03-21T10:24:01.077Z,13.33
2019-03-21T10:25:01.097Z,13.39
2019-03-21T10:26:01.118Z,13.39
2019-03-21T10:27:01.144Z,13.36
2019-03-21T10:28:01.197Z,13.45
2019-03-21T10:29:01.221Z,13.43
2019-03-21T10:30:01.223Z,13.46
2019-03-21T10:31:01.313Z,13.43
2019-03-21T10:32:01.298Z,13.50
2019-03-21T10:33:01.291Z,13.54
2019-03-21T10:34:01.309Z,13.54
2019-03-21T10:35:01.304Z,13.54
2019-03-21T10:36:01.319Z,13.57
2019-03-21T10:37:01.372Z,13.60
2019-03-21T10:38:01.361Z,13.73
2019-03-21T10:39:01.379Z,13.64
2019-03-21T10:40:01.402Z,13.71
2019-03-21T10:41:01.420Z,13.67
2019-03-21T10:42:01.439Z,13.58
2019-03-21T10:43:01.461Z,13.67
2019-03-21T10:44:01.483Z,13.70
2019-03-21T10:45:01.500Z,13.71
2019-03-21T10:46:01.521Z,13.76
2019-03-21T10:47:01.541Z,13.78
2019-03-21T10:48:01.561Z,13.80
2019-03-21T10:49:01.584Z,13.80
2019-03-21T10:50:01.605Z,13.86
2019-03-21T10:51:01.626Z,13.85
2019-03-21T10:52:01.642Z,13.91
2019-03-21T10:53:01.667Z,13.93
2019-03-21T10:54:01.685Z,13.98
2019-03-21T10:55:01.704Z,13.95
2019-03-21T10:56:01.726Z,14.04
2019-03-21T10:57:01.747Z,14.01
2019-03-21T10:58:01.766Z,14.05
2019-03-21T10:59:01.786Z,14.01
2019-03-21T11:00:02.265Z,14.01
2019-03-21T11:01:01.827Z,14.03
2019-03-21T11:02:07.264Z,14.00
2019-03-21T11:03:01.866Z,14.15
2019-03-21T11:04:01.890Z,14.08
2019-03-21T11:05:01.910Z,14.05
2019-03-21T11:06:01.931Z,14.05
2019-03-21T11:07:01.961Z,14.11
2019-03-21T11:08:01.970Z,14.07
2019-03-21T11:09:01.990Z,14.05
2019-03-21T11:10:02.021Z,14.05
2019-03-21T11:11:02.033Z,14.04
2019-03-21T11:12:02.054Z,14.01
2019-03-21T11:13:02.074Z,14.07
2019-03-21T11:14:02.094Z,14.01
2019-03-21T11:15:02.114Z,14.07
2019-03-21T11:16:02.136Z,14.01
2019-03-21T11:17:02.156Z,14.03
2019-03-21T11:18:02.176Z,13.94
2019-03-21T11:19:02.197Z,13.95
2019-03-21T11:20:02.216Z,13.94
2019-03-21T11:21:02.236Z,13.89
2019-03-21T11:22:06.293Z,13.82
2019-03-21T11:23:02.277Z,13.93
2019-03-21T11:24:02.303Z,13.91
2019-03-21T11:25:02.325Z,13.82
2019-03-21T11:26:02.343Z,13.86
2019-03-21T11:27:02.359Z,13.86
2019-03-21T11:28:02.380Z,13.89
2019-03-21T11:29:02.401Z,13.85
2019-03-21T11:30:02.421Z,13.93
2019-03-21T11:31:02.442Z,13.87
2019-03-21T11:32:02.460Z,13.91
2019-03-21T11:33:02.481Z,13.95
2019-03-21T11:34:02.502Z,13.95
2019-03-21T11:35:02.523Z,13.97
2019-03-21T11:36:02.541Z,13.97
2019-03-21T11:37:02.569Z,14.00
2019-03-21T11:38:02.584Z,14.05
2019-03-21T11:39:02.602Z,14.05
2019-03-21T11:40:02.625Z,14.03
2019-03-21T11:41:02.660Z,14.08
2019-03-21T11:42:02.678Z,14.04
2019-03-21T11:43:02.705Z,14.16
2019-03-21T11:44:02.706Z,14.12
2019-03-21T11:45:02.730Z,14.11
2019-03-21T11:46:02.756Z,14.12
2019-03-21T11:47:02.772Z,14.12
2019-03-21T11:48:02.787Z,14.22
2019-03-21T11:49:02.821Z,14.19
2019-03-21T11:50:02.842Z,14.07
2019-03-21T11:51:02.856Z,14.22
2019-03-21T11:52:02.871Z,14.20
2019-03-21T11:53:02.892Z,14.13
2019-03-21T11:54:02.912Z,14.18
2019-03-21T11:55:02.933Z,14.19
2019-03-21T11:56:02.965Z,14.19
2019-03-21T11:57:02.973Z,14.25
2019-03-21T11:58:02.996Z,14.22
2019-03-21T11:59:03.014Z,14.22
2019-03-21T12:00:03.123Z,14.18
2019-03-21T12:01:03.120Z,14.20
2019-03-21T12:02:03.120Z,14.26
2019-03-21T12:03:04.226Z,14.20
2019-03-21T12:04:03.179Z,14.30
2019-03-21T12:05:03.199Z,14.40
2019-03-21T12:06:03.175Z,14.34
2019-03-21T12:07:03.188Z,14.28
2019-03-21T12:08:03.199Z,14.36
2019-03-21T12:09:03.219Z,14.36
2019-03-21T12:10:03.241Z,14.48
2019-03-21T12:11:03.264Z,14.44
2019-03-21T12:12:03.305Z,14.45
2019-03-21T12:13:03.304Z,14.44
2019-03-21T12:14:03.323Z,14.44
2019-03-21T12:15:03.344Z,14.44
2019-03-21T12:16:03.366Z,14.52
2019-03-21T12:17:03.388Z,14.58
2019-03-21T12:18:03.406Z,14.53
2019-03-21T12:19:03.427Z,14.56
2019-03-21T12:20:03.447Z,14.53
2019-03-21T12:21:03.469Z,14.49
2019-03-21T12:22:03.492Z,14.53
2019-03-21T12:23:03.510Z,14.56
2019-03-21T12:24:03.529Z,14.52
2019-03-21T12:25:03.551Z,14.53
2019-03-21T12:26:03.574Z,14.41
2019-03-21T12:27:03.591Z,14.52
2019-03-21T12:28:03.613Z,14.44
2019-03-21T12:29:03.637Z,14.49
2019-03-21T12:30:03.654Z,14.45
2019-03-21T12:31:03.675Z,14.49
2019-03-21T12:32:03.697Z,14.41
2019-03-21T12:33:03.717Z,14.45
2019-03-21T12:34:03.738Z,14.37
2019-03-21T12:35:03.755Z,14.36
2019-03-21T12:36:03.777Z,14.25
2019-03-21T12:37:03.799Z,14.30
2019-03-21T12:38:03.819Z,14.37
2019-03-21T12:39:03.841Z,14.22
2019-03-21T12:40:03.859Z,14.37
2019-03-21T12:41:03.881Z,14.26
2019-03-21T12:42:03.907Z,14.30
2019-03-21T12:43:03.923Z,14.41
2019-03-21T12:44:03.941Z,14.25
2019-03-21T12:45:03.962Z,14.33
2019-03-21T12:46:03.986Z,14.36
2019-03-21T12:47:04.004Z,14.34
2019-03-21T12:48:04.025Z,14.34
2019-03-21T12:49:04.046Z,14.33
2019-03-21T12:50:04.066Z,14.37
2019-03-21T12:51:04.087Z,14.44
2019-03-21T12:52:04.111Z,14.40
2019-03-21T12:53:04.126Z,14.52